LPFL/FLW METAR and TAF weather

Enter ICAO airport designator
Station Type Date Time Source
LPFL METAR 2020/07/04 18:00 UTC NOAA

LPFL 041800Z 09004KT 030V140 9999 FEW010TCU SCT018 23/19 Q1031


Station Type Date Time Source
LPFL Decoded METAR 2020/07/04 18:00 UTC NOAA

Flores Acores , Portugal (LPFL) 39-27N 031-08W 29M
Jul 04, 2020 - 02:00 PM EDT / 2020.07.04 1800 UTC
Wind: from the E (090 degrees) at 5 MPH (4 KT) (direction variable):0
Visibility: greater than 7 mile(s):0
Sky conditions: partly cloudy
Weather: Towering cumulus clouds observed
Temperature: 73 F (23 C)
Dew Point: 66 F (19 C)
Relative Humidity: 78%
Pressure (altimeter): 30.45 in. Hg (1031 hPa)
ob: LPFL 041800Z 09004KT 030V140 9999 FEW010TCU SCT018 23/19 Q1031
cycle: 18

Station Type Date Time Source
LPFL TAF UTC NOAA

Error!

Example: see airport list